UKDE/OZH METAR and TAF weather

Enter ICAO airport designator
Station Type Date Time Source
UKDE METAR 2021/05/11 16:30 UTC NOAA

UKDE 111630Z 01006MPS CAVOK 12/03 Q1015 R02/090070 NOSIG


Station Type Date Time Source
UKDE Decoded METAR 2021/05/11 16:30 UTC NOAA

Zaporizhzhia / Mokraya, Ukraine (UKDE) 47-52-02N 035-18-59E
May 11, 2021 - 12:30 PM EDT / 2021.05.11 1630 UTC
Wind: from the N (010 degrees) at 13 MPH (12 KT):0
Visibility: greater than 7 mile(s):0
Temperature: 53 F (12 C)
Dew Point: 37 F (3 C)
Relative Humidity: 54%
Pressure (altimeter): 29.97 in. Hg (1015 hPa)
ob: UKDE 111630Z 01006MPS CAVOK 12/03 Q1015 R02/090070 NOSIG
cycle: 16

Station Type Date Time Source
UKDE TAF 2020/06/03 15:15 UTC NOAA

TAF
AMD TAF
AMD UKDE 031510Z 0315/0524 21007MPS 9999 BKN030CB
TEMPO 0315/0318 VRB15G20MPS 0300 +TSRAGR SQ BKN007 BKN013CB

Example: see airport list